sensor_id;sensor_type;location;lat;lon;timestamp;temperature;humidity
33863;DHT22;20158;51.436;-2.742;2022-10-17T00:00:30;16.80;72.00
33863;DHT22;20158;51.436;-2.742;2022-10-17T00:02:57;16.80;72.00
33863;DHT22;20158;51.436;-2.742;2022-10-17T00:05:23;16.80;72.10
33863;DHT22;20158;51.436;-2.742;2022-10-17T00:07:50;16.80;72.10
33863;DHT22;20158;51.436;-2.742;2022-10-17T00:10:16;16.80;72.10
33863;DHT22;20158;51.436;-2.742;2022-10-17T00:12:44;16.80;72.10
33863;DHT22;20158;51.436;-2.742;2022-10-17T00:15:14;16.80;72.10
33863;DHT22;20158;51.436;-2.742;2022-10-17T00:17:41;16.80;72.10
33863;DHT22;20158;51.436;-2.742;2022-10-17T00:20:07;16.80;72.10
33863;DHT22;20158;51.436;-2.742;2022-10-17T00:22:33;16.80;72.10
33863;DHT22;20158;51.436;-2.742;2022-10-17T00:25:00;16.80;72.20
33863;DHT22;20158;51.436;-2.742;2022-10-17T00:27:26;16.80;72.30
33863;DHT22;20158;51.436;-2.742;2022-10-17T00:29:52;16.80;72.20
33863;DHT22;20158;51.436;-2.742;2022-10-17T00:32:19;16.80;72.30
33863;DHT22;20158;51.436;-2.742;2022-10-17T00:34:46;16.80;72.30
33863;DHT22;20158;51.436;-2.742;2022-10-17T00:37:12;16.80;72.30
33863;DHT22;20158;51.436;-2.742;2022-10-17T00:39:38;16.80;72.30
33863;DHT22;20158;51.436;-2.742;2022-10-17T00:42:04;16.80;72.30
33863;DHT22;20158;51.436;-2.742;2022-10-17T00:46:57;16.80;72.40
33863;DHT22;20158;51.436;-2.742;2022-10-17T00:49:26;16.80;72.40
33863;DHT22;20158;51.436;-2.742;2022-10-17T00:52:14;16.80;72.40
33863;DHT22;20158;51.436;-2.742;2022-10-17T00:54:45;16.80;72.40
33863;DHT22;20158;51.436;-2.742;2022-10-17T00:57:11;16.80;72.40
33863;DHT22;20158;51.436;-2.742;2022-10-17T00:59:39;16.80;72.40
33863;DHT22;20158;51.436;-2.742;2022-10-17T01:02:10;16.80;72.40
33863;DHT22;20158;51.436;-2.742;2022-10-17T01:04:40;16.80;72.50
33863;DHT22;20158;51.436;-2.742;2022-10-17T01:07:07;16.90;72.70
33863;DHT22;20158;51.436;-2.742;2022-10-17T01:09:33;16.80;72.60
33863;DHT22;20158;51.436;-2.742;2022-10-17T01:17:41;16.90;72.80
33863;DHT22;20158;51.436;-2.742;2022-10-17T01:31:12;16.90;72.90
33863;DHT22;20158;51.436;-2.742;2022-10-17T01:33:49;16.80;72.80
33863;DHT22;20158;51.436;-2.742;2022-10-17T01:39:11;16.80;72.90
33863;DHT22;20158;51.436;-2.742;2022-10-17T01:43:00;16.80;72.90
33863;DHT22;20158;51.436;-2.742;2022-10-17T01:44:59;16.80;73.00
33863;DHT22;20158;51.436;-2.742;2022-10-17T01:47:31;16.80;72.90
33863;DHT22;20158;51.436;-2.742;2022-10-17T01:50:11;16.80;73.00
33863;DHT22;20158;51.436;-2.742;2022-10-17T01:52:49;16.80;73.10
33863;DHT22;20158;51.436;-2.742;2022-10-17T01:55:20;16.80;73.10
33863;DHT22;20158;51.436;-2.742;2022-10-17T01:57:50;16.80;73.10
33863;DHT22;20158;51.436;-2.742;2022-10-17T02:00:22;16.80;73.10
33863;DHT22;20158;51.436;-2.742;2022-10-17T02:02:57;16.80;73.20
33863;DHT22;20158;51.436;-2.742;2022-10-17T02:05:27;16.80;73.30
33863;DHT22;20158;51.436;-2.742;2022-10-17T02:07:53;16.90;73.40
33863;DHT22;20158;51.436;-2.742;2022-10-17T02:10:32;16.90;73.40
33863;DHT22;20158;51.436;-2.742;2022-10-17T02:15:50;16.90;73.50
33863;DHT22;20158;51.436;-2.742;2022-10-17T02:18:57;16.90;73.60
33863;DHT22;20158;51.436;-2.742;2022-10-17T02:27:32;16.90;73.50
33863;DHT22;20158;51.436;-2.742;2022-10-17T02:30:08;16.80;73.40
33863;DHT22;20158;51.436;-2.742;2022-10-17T02:32:49;16.80;73.50
33863;DHT22;20158;51.436;-2.742;2022-10-17T02:35:20;16.80;73.50
33863;DHT22;20158;51.436;-2.742;2022-10-17T02:37:48;16.80;73.50
33863;DHT22;20158;51.436;-2.742;2022-10-17T02:40:17;16.80;73.60
33863;DHT22;20158;51.436;-2.742;2022-10-17T02:42:45;16.80;73.70
33863;DHT22;20158;51.436;-2.742;2022-10-17T02:45:14;16.80;73.70
33863;DHT22;20158;51.436;-2.742;2022-10-17T02:47:53;16.80;73.80
33863;DHT22;20158;51.436;-2.742;2022-10-17T02:50:48;16.80;73.80
33863;DHT22;20158;51.436;-2.742;2022-10-17T02:53:19;16.80;73.90
33863;DHT22;20158;51.436;-2.742;2022-10-17T02:55:56;16.80;73.90
33863;DHT22;20158;51.436;-2.742;2022-10-17T02:58:27;16.80;73.90
33863;DHT22;20158;51.436;-2.742;2022-10-17T03:00:55;16.70;73.80
33863;DHT22;20158;51.436;-2.742;2022-10-17T03:03:29;16.70;73.80
33863;DHT22;20158;51.436;-2.742;2022-10-17T03:05:59;16.80;74.00
33863;DHT22;20158;51.436;-2.742;2022-10-17T03:08:26;16.70;73.90
33863;DHT22;20158;51.436;-2.742;2022-10-17T03:10:55;16.70;73.90
33863;DHT22;20158;51.436;-2.742;2022-10-17T03:13:21;16.70;74.00
33863;DHT22;20158;51.436;-2.742;2022-10-17T03:15:47;16.70;74.00
33863;DHT22;20158;51.436;-2.742;2022-10-17T03:18:13;16.70;74.00
33863;DHT22;20158;51.436;-2.742;2022-10-17T03:20:39;16.70;74.00
33863;DHT22;20158;51.436;-2.742;2022-10-17T03:23:05;16.70;74.00
33863;DHT22;20158;51.436;-2.742;2022-10-17T03:25:32;16.70;74.00
33863;DHT22;20158;51.436;-2.742;2022-10-17T03:27:59;16.70;74.00
33863;DHT22;20158;51.436;-2.742;2022-10-17T03:30:29;16.70;74.00
33863;DHT22;20158;51.436;-2.742;2022-10-17T03:32:57;16.70;74.00
33863;DHT22;20158;51.436;-2.742;2022-10-17T03:35:24;16.70;74.10
33863;DHT22;20158;51.436;-2.742;2022-10-17T03:37:50;16.70;74.00
33863;DHT22;20158;51.436;-2.742;2022-10-17T03:40:18;16.70;74.00
33863;DHT22;20158;51.436;-2.742;2022-10-17T03:42:45;16.70;74.00
33863;DHT22;20158;51.436;-2.742;2022-10-17T03:45:11;16.70;74.00
33863;DHT22;20158;51.436;-2.742;2022-10-17T03:47:37;16.60;73.80
33863;DHT22;20158;51.436;-2.742;2022-10-17T03:50:03;16.60;73.80
33863;DHT22;20158;51.436;-2.742;2022-10-17T03:52:33;16.60;73.80
33863;DHT22;20158;51.436;-2.742;2022-10-17T03:55:00;16.60;73.80
33863;DHT22;20158;51.436;-2.742;2022-10-17T03:57:26;16.60;73.90
33863;DHT22;20158;51.436;-2.742;2022-10-17T03:59:53;16.50;73.70
33863;DHT22;20158;51.436;-2.742;2022-10-17T04:02:20;16.50;73.80
33863;DHT22;20158;51.436;-2.742;2022-10-17T04:04:48;16.50;73.80
33863;DHT22;20158;51.436;-2.742;2022-10-17T04:07:15;16.50;73.90
33863;DHT22;20158;51.436;-2.742;2022-10-17T04:09:45;16.50;73.80
33863;DHT22;20158;51.436;-2.742;2022-10-17T04:12:16;16.40;73.70
33863;DHT22;20158;51.436;-2.742;2022-10-17T04:14:43;16.40;73.70
33863;DHT22;20158;51.436;-2.742;2022-10-17T04:17:10;16.30;73.50
33863;DHT22;20158;51.436;-2.742;2022-10-17T04:19:37;16.40;74.30
33863;DHT22;20158;51.436;-2.742;2022-10-17T04:22:03;16.40;73.80
33863;DHT22;20158;51.436;-2.742;2022-10-17T04:24:35;16.30;73.60
33863;DHT22;20158;51.436;-2.742;2022-10-17T04:27:07;16.30;73.60
33863;DHT22;20158;51.436;-2.742;2022-10-17T04:29:37;16.30;73.60
33863;DHT22;20158;51.436;-2.742;2022-10-17T04:32:09;16.20;73.50
33863;DHT22;20158;51.436;-2.742;2022-10-17T04:34:42;16.20;73.50
33863;DHT22;20158;51.436;-2.742;2022-10-17T04:37:08;16.20;73.50
33863;DHT22;20158;51.436;-2.742;2022-10-17T04:39:35;16.10;73.40
33863;DHT22;20158;51.436;-2.742;2022-10-17T04:42:01;16.10;73.40
33863;DHT22;20158;51.436;-2.742;2022-10-17T04:44:30;16.10;73.50
33863;DHT22;20158;51.436;-2.742;2022-10-17T04:46:58;16.10;73.50
33863;DHT22;20158;51.436;-2.742;2022-10-17T04:49:24;16.10;73.50
33863;DHT22;20158;51.436;-2.742;2022-10-17T04:51:53;16.00;73.40
33863;DHT22;20158;51.436;-2.742;2022-10-17T04:54:38;16.00;73.40
33863;DHT22;20158;51.436;-2.742;2022-10-17T04:57:08;16.00;73.50
33863;DHT22;20158;51.436;-2.742;2022-10-17T04:59:34;15.90;73.40
33863;DHT22;20158;51.436;-2.742;2022-10-17T05:02:20;15.90;73.40
33863;DHT22;20158;51.436;-2.742;2022-10-17T05:04:46;15.80;73.30
33863;DHT22;20158;51.436;-2.742;2022-10-17T05:07:13;15.80;73.30
33863;DHT22;20158;51.436;-2.742;2022-10-17T05:09:39;15.80;73.30
33863;DHT22;20158;51.436;-2.742;2022-10-17T05:12:05;15.80;73.40
33863;DHT22;20158;51.436;-2.742;2022-10-17T05:14:31;15.70;73.20
33863;DHT22;20158;51.436;-2.742;2022-10-17T05:16:57;15.70;73.30
33863;DHT22;20158;51.436;-2.742;2022-10-17T05:19:24;15.70;73.30
33863;DHT22;20158;51.436;-2.742;2022-10-17T05:21:50;15.70;73.30
33863;DHT22;20158;51.436;-2.742;2022-10-17T05:24:17;15.70;73.40
33863;DHT22;20158;51.436;-2.742;2022-10-17T05:26:43;15.70;73.40
33863;DHT22;20158;51.436;-2.742;2022-10-17T05:29:09;15.60;73.20
33863;DHT22;20158;51.436;-2.742;2022-10-17T05:31:40;15.60;73.30
33863;DHT22;20158;51.436;-2.742;2022-10-17T05:34:07;15.60;73.30
33863;DHT22;20158;51.436;-2.742;2022-10-17T05:36:34;15.60;73.30
33863;DHT22;20158;51.436;-2.742;2022-10-17T05:39:03;15.50;73.20
33863;DHT22;20158;51.436;-2.742;2022-10-17T05:41:31;15.50;73.20
33863;DHT22;20158;51.436;-2.742;2022-10-17T05:43:58;15.50;73.20
33863;DHT22;20158;51.436;-2.742;2022-10-17T05:46:38;15.50;73.20
33863;DHT22;20158;51.436;-2.742;2022-10-17T05:49:04;15.50;73.20
33863;DHT22;20158;51.436;-2.742;2022-10-17T05:51:32;15.50;73.30
33863;DHT22;20158;51.436;-2.742;2022-10-17T05:54:00;15.50;73.30
33863;DHT22;20158;51.436;-2.742;2022-10-17T05:56:28;15.40;73.20
33863;DHT22;20158;51.436;-2.742;2022-10-17T05:58:54;15.40;73.40
33863;DHT22;20158;51.436;-2.742;2022-10-17T06:01:43;15.50;73.90
33863;DHT22;20158;51.436;-2.742;2022-10-17T06:04:10;15.40;73.90
33863;DHT22;20158;51.436;-2.742;2022-10-17T06:06:38;15.50;74.50
33863;DHT22;20158;51.436;-2.742;2022-10-17T06:09:05;15.50;74.90
33863;DHT22;20158;51.436;-2.742;2022-10-17T06:11:36;15.50;75.10
33863;DHT22;20158;51.436;-2.742;2022-10-17T06:14:03;15.60;75.40
33863;DHT22;20158;51.436;-2.742;2022-10-17T06:16:31;15.60;75.40
33863;DHT22;20158;51.436;-2.742;2022-10-17T06:18:57;15.60;75.30
33863;DHT22;20158;51.436;-2.742;2022-10-17T06:21:25;15.60;75.30
33863;DHT22;20158;51.436;-2.742;2022-10-17T06:24:05;15.50;75.10
33863;DHT22;20158;51.436;-2.742;2022-10-17T06:26:34;15.50;75.10
33863;DHT22;20158;51.436;-2.742;2022-10-17T06:29:00;15.40;75.00
33863;DHT22;20158;51.436;-2.742;2022-10-17T06:31:33;15.40;75.00
33863;DHT22;20158;51.436;-2.742;2022-10-17T06:34:04;15.40;75.00
33863;DHT22;20158;51.436;-2.742;2022-10-17T06:36:30;15.30;74.70
33863;DHT22;20158;51.436;-2.742;2022-10-17T06:38:56;15.30;74.80
33863;DHT22;20158;51.436;-2.742;2022-10-17T06:41:29;15.30;74.80
33863;DHT22;20158;51.436;-2.742;2022-10-17T06:44:02;15.20;74.60
33863;DHT22;20158;51.436;-2.742;2022-10-17T06:46:48;15.20;74.60
33863;DHT22;20158;51.436;-2.742;2022-10-17T06:49:19;15.20;74.60
33863;DHT22;20158;51.436;-2.742;2022-10-17T06:51:50;15.20;74.60
33863;DHT22;20158;51.436;-2.742;2022-10-17T06:54:21;15.20;74.50
33863;DHT22;20158;51.436;-2.742;2022-10-17T06:57:01;15.20;74.50
33863;DHT22;20158;51.436;-2.742;2022-10-17T06:59:51;15.20;74.50
33863;DHT22;20158;51.436;-2.742;2022-10-17T07:02:23;15.20;74.40
33863;DHT22;20158;51.436;-2.742;2022-10-17T07:04:50;15.20;74.30
33863;DHT22;20158;51.436;-2.742;2022-10-17T07:07:19;15.20;74.20
33863;DHT22;20158;51.436;-2.742;2022-10-17T07:09:45;15.20;74.20
33863;DHT22;20158;51.436;-2.742;2022-10-17T07:12:11;15.20;74.10
33863;DHT22;20158;51.436;-2.742;2022-10-17T07:14:41;15.20;74.00
33863;DHT22;20158;51.436;-2.742;2022-10-17T07:17:08;15.20;74.10
33863;DHT22;20158;51.436;-2.742;2022-10-17T07:19:35;15.30;74.50
33863;DHT22;20158;51.436;-2.742;2022-10-17T07:22:02;15.30;74.70
33863;DHT22;20158;51.436;-2.742;2022-10-17T07:24:29;15.40;75.00
33863;DHT22;20158;51.436;-2.742;2022-10-17T07:27:14;15.50;75.20
33863;DHT22;20158;51.436;-2.742;2022-10-17T07:29:40;15.50;75.10
33863;DHT22;20158;51.436;-2.742;2022-10-17T07:32:24;15.60;75.30
33863;DHT22;20158;51.436;-2.742;2022-10-17T07:34:50;15.70;75.40
33863;DHT22;20158;51.436;-2.742;2022-10-17T07:37:16;15.70;75.30
33863;DHT22;20158;51.436;-2.742;2022-10-17T07:39:48;15.80;75.50
33863;DHT22;20158;51.436;-2.742;2022-10-17T07:42:18;15.90;75.50
33863;DHT22;20158;51.436;-2.742;2022-10-17T07:44:49;15.90;75.50
33863;DHT22;20158;51.436;-2.742;2022-10-17T07:47:16;16.00;75.60
33863;DHT22;20158;51.436;-2.742;2022-10-17T07:49:43;16.00;75.60
33863;DHT22;20158;51.436;-2.742;2022-10-17T07:52:12;16.00;75.50
33863;DHT22;20158;51.436;-2.742;2022-10-17T07:54:38;16.10;75.60
33863;DHT22;20158;51.436;-2.742;2022-10-17T07:57:04;16.10;75.60
33863;DHT22;20158;51.436;-2.742;2022-10-17T07:59:32;16.10;75.50
33863;DHT22;20158;51.436;-2.742;2022-10-17T08:01:58;16.20;75.70
33863;DHT22;20158;51.436;-2.742;2022-10-17T08:04:25;16.20;76.20
33863;DHT22;20158;51.436;-2.742;2022-10-17T08:06:51;16.20;75.60
33863;DHT22;20158;51.436;-2.742;2022-10-17T08:09:19;16.20;75.50
33863;DHT22;20158;51.436;-2.742;2022-10-17T08:11:45;16.20;75.50
33863;DHT22;20158;51.436;-2.742;2022-10-17T08:14:12;16.20;75.60
33863;DHT22;20158;51.436;-2.742;2022-10-17T08:16:39;16.20;75.60
33863;DHT22;20158;51.436;-2.742;2022-10-17T08:19:05;16.30;76.20
33863;DHT22;20158;51.436;-2.742;2022-10-17T08:21:34;16.30;75.80
33863;DHT22;20158;51.436;-2.742;2022-10-17T08:24:00;16.30;75.70
33863;DHT22;20158;51.436;-2.742;2022-10-17T08:26:28;16.30;75.70
33863;DHT22;20158;51.436;-2.742;2022-10-17T08:28:54;16.40;75.80
33863;DHT22;20158;51.436;-2.742;2022-10-17T08:31:21;16.40;75.80
33863;DHT22;20158;51.436;-2.742;2022-10-17T08:33:49;16.40;75.70
33863;DHT22;20158;51.436;-2.742;2022-10-17T08:36:17;16.50;75.80
33863;DHT22;20158;51.436;-2.742;2022-10-17T08:38:45;16.60;75.80
33863;DHT22;20158;51.436;-2.742;2022-10-17T08:44:18;16.60;75.60
33863;DHT22;20158;51.436;-2.742;2022-10-17T08:46:49;16.70;75.60
33863;DHT22;20158;51.436;-2.742;2022-10-17T08:49:41;16.70;76.00
33863;DHT22;20158;51.436;-2.742;2022-10-17T08:52:42;16.80;75.50
33863;DHT22;20158;51.436;-2.742;2022-10-17T08:55:21;16.80;75.30
33863;DHT22;20158;51.436;-2.742;2022-10-17T08:57:52;16.80;75.20
33863;DHT22;20158;51.436;-2.742;2022-10-17T09:00:20;16.90;75.30
33863;DHT22;20158;51.436;-2.742;2022-10-17T09:07:52;16.90;75.00
33863;DHT22;20158;51.436;-2.742;2022-10-17T09:10:54;17.00;75.00
33863;DHT22;20158;51.436;-2.742;2022-10-17T09:16:06;17.00;74.80
33863;DHT22;20158;51.436;-2.742;2022-10-17T09:18:40;17.10;74.70
33863;DHT22;20158;51.436;-2.742;2022-10-17T09:23:56;17.10;74.50
33863;DHT22;20158;51.436;-2.742;2022-10-17T09:26:24;17.20;74.60
33863;DHT22;20158;51.436;-2.742;2022-10-17T09:28:56;17.20;74.60
33863;DHT22;20158;51.436;-2.742;2022-10-17T09:31:29;17.20;74.50
33863;DHT22;20158;51.436;-2.742;2022-10-17T09:34:00;17.30;75.10
33863;DHT22;20158;51.436;-2.742;2022-10-17T09:36:29;17.30;74.40
33863;DHT22;20158;51.436;-2.742;2022-10-17T09:39:12;17.30;74.40
33863;DHT22;20158;51.436;-2.742;2022-10-17T09:44:37;17.40;74.20
33863;DHT22;20158;51.436;-2.742;2022-10-17T09:49:52;17.50;74.00
33863;DHT22;20158;51.436;-2.742;2022-10-17T09:57:58;17.50;73.40
33863;DHT22;20158;51.436;-2.742;2022-10-17T10:00:27;17.50;73.40
33863;DHT22;20158;51.436;-2.742;2022-10-17T10:03:17;17.50;73.40
33863;DHT22;20158;51.436;-2.742;2022-10-17T10:06:00;17.50;73.20
33863;DHT22;20158;51.436;-2.742;2022-10-17T10:08:30;17.50;73.10
33863;DHT22;20158;51.436;-2.742;2022-10-17T10:10:58;17.50;73.00
33863;DHT22;20158;51.436;-2.742;2022-10-17T10:13:26;17.50;72.90
33863;DHT22;20158;51.436;-2.742;2022-10-17T10:15:52;17.50;72.80
33863;DHT22;20158;51.436;-2.742;2022-10-17T10:18:33;17.50;72.60
33863;DHT22;20158;51.436;-2.742;2022-10-17T10:21:26;17.50;72.40
33863;DHT22;20158;51.436;-2.742;2022-10-17T10:24:25;17.50;72.20
33863;DHT22;20158;51.436;-2.742;2022-10-17T10:26:54;17.60;72.30
33863;DHT22;20158;51.436;-2.742;2022-10-17T10:29:50;17.60;72.20
33863;DHT22;20158;51.436;-2.742;2022-10-17T10:32:29;17.60;72.00
33863;DHT22;20158;51.436;-2.742;2022-10-17T10:35:17;17.60;71.90
33863;DHT22;20158;51.436;-2.742;2022-10-17T10:37:47;17.70;71.90
33863;DHT22;20158;51.436;-2.742;2022-10-17T10:40:34;17.70;71.70
33863;DHT22;20158;51.436;-2.742;2022-10-17T10:43:02;17.70;71.60
33863;DHT22;20158;51.436;-2.742;2022-10-17T10:48:17;17.70;71.40
33863;DHT22;20158;51.436;-2.742;2022-10-17T10:50:46;17.80;72.00
33863;DHT22;20158;51.436;-2.742;2022-10-17T10:53:22;17.80;71.30
33863;DHT22;20158;51.436;-2.742;2022-10-17T10:56:00;17.80;71.20
33863;DHT22;20158;51.436;-2.742;2022-10-17T10:58:40;17.80;71.00
33863;DHT22;20158;51.436;-2.742;2022-10-17T11:01:29;17.90;71.00
33863;DHT22;20158;51.436;-2.742;2022-10-17T11:12:27;18.10;70.30
33863;DHT22;20158;51.436;-2.742;2022-10-17T11:17:35;18.20;70.00
33863;DHT22;20158;51.436;-2.742;2022-10-17T11:20:21;18.30;69.90
33863;DHT22;20158;51.436;-2.742;2022-10-17T11:22:56;18.30;69.70
33863;DHT22;20158;51.436;-2.742;2022-10-17T11:25:38;18.40;69.70
33863;DHT22;20158;51.436;-2.742;2022-10-17T11:28:14;18.50;69.50
33863;DHT22;20158;51.436;-2.742;2022-10-17T11:31:29;18.60;69.40
33863;DHT22;20158;51.436;-2.742;2022-10-17T11:33:51;18.60;69.20
33863;DHT22;20158;51.436;-2.742;2022-10-17T11:36:21;18.70;69.10
33863;DHT22;20158;51.436;-2.742;2022-10-17T11:39:03;18.70;68.90
33863;DHT22;20158;51.436;-2.742;2022-10-17T11:41:46;18.80;68.90
33863;DHT22;20158;51.436;-2.742;2022-10-17T11:44:23;18.80;68.70
33863;DHT22;20158;51.436;-2.742;2022-10-17T11:47:05;18.90;68.70
33863;DHT22;20158;51.436;-2.742;2022-10-17T11:49:37;19.00;68.60
33863;DHT22;20158;51.436;-2.742;2022-10-17T11:52:40;19.10;68.60
33863;DHT22;20158;51.436;-2.742;2022-10-17T11:55:19;19.20;68.30
33863;DHT22;20158;51.436;-2.742;2022-10-17T12:00:51;19.60;68.30
33863;DHT22;20158;51.436;-2.742;2022-10-17T12:03:48;19.80;68.20
33863;DHT22;20158;51.436;-2.742;2022-10-17T12:06:33;20.10;67.90
33863;DHT22;20158;51.436;-2.742;2022-10-17T12:09:20;20.20;67.80
33863;DHT22;20158;51.436;-2.742;2022-10-17T12:11:56;20.40;67.60
33863;DHT22;20158;51.436;-2.742;2022-10-17T12:16:59;20.60;66.80
33863;DHT22;20158;51.436;-2.742;2022-10-17T12:19:28;20.60;66.70
33863;DHT22;20158;51.436;-2.742;2022-10-17T12:22:24;20.60;66.60
33863;DHT22;20158;51.436;-2.742;2022-10-17T12:25:01;20.60;66.30
33863;DHT22;20158;51.436;-2.742;2022-10-17T12:32:32;20.60;66.10
33863;DHT22;20158;51.436;-2.742;2022-10-17T12:34:58;20.60;66.10
33863;DHT22;20158;51.436;-2.742;2022-10-17T12:43:01;20.80;65.60
33863;DHT22;20158;51.436;-2.742;2022-10-17T12:45:50;20.80;65.50
33863;DHT22;20158;51.436;-2.742;2022-10-17T12:51:15;20.90;64.90
33863;DHT22;20158;51.436;-2.742;2022-10-17T12:53:48;21.00;64.90
33863;DHT22;20158;51.436;-2.742;2022-10-17T12:56:18;21.00;64.90
33863;DHT22;20158;51.436;-2.742;2022-10-17T12:58:47;21.00;64.70
33863;DHT22;20158;51.436;-2.742;2022-10-17T13:01:26;21.10;64.60
33863;DHT22;20158;51.436;-2.742;2022-10-17T13:03:52;21.20;64.40
33863;DHT22;20158;51.436;-2.742;2022-10-17T13:06:30;21.20;64.20
33863;DHT22;20158;51.436;-2.742;2022-10-17T13:09:00;21.30;63.90
33863;DHT22;20158;51.436;-2.742;2022-10-17T13:11:29;21.30;63.80
33863;DHT22;20158;51.436;-2.742;2022-10-17T13:13:59;21.30;63.80
33863;DHT22;20158;51.436;-2.742;2022-10-17T13:16:31;21.40;63.80
33863;DHT22;20158;51.436;-2.742;2022-10-17T13:18:58;21.50;63.80
33863;DHT22;20158;51.436;-2.742;2022-10-17T13:21:24;21.70;63.90
33863;DHT22;20158;51.436;-2.742;2022-10-17T13:23:50;21.80;63.80
33863;DHT22;20158;51.436;-2.742;2022-10-17T13:26:20;21.90;63.70
33863;DHT22;20158;51.436;-2.742;2022-10-17T13:29:13;22.00;63.60
33863;DHT22;20158;51.436;-2.742;2022-10-17T13:31:41;22.20;63.40
33863;DHT22;20158;51.436;-2.742;2022-10-17T13:34:18;22.30;63.50
33863;DHT22;20158;51.436;-2.742;2022-10-17T13:36:47;22.30;62.90
33863;DHT22;20158;51.436;-2.742;2022-10-17T13:39:16;22.40;63.00
33863;DHT22;20158;51.436;-2.742;2022-10-17T13:41:42;22.50;62.90
33863;DHT22;20158;51.436;-2.742;2022-10-17T13:44:22;22.50;62.60
33863;DHT22;20158;51.436;-2.742;2022-10-17T13:46:49;22.60;62.10
33863;DHT22;20158;51.436;-2.742;2022-10-17T13:49:25;22.60;62.20
33863;DHT22;20158;51.436;-2.742;2022-10-17T13:51:55;22.60;61.90
33863;DHT22;20158;51.436;-2.742;2022-10-17T13:56:58;22.60;61.50
33863;DHT22;20158;51.436;-2.742;2022-10-17T13:59:35;22.60;61.60
33863;DHT22;20158;51.436;-2.742;2022-10-17T14:02:02;22.60;61.50
33863;DHT22;20158;51.436;-2.742;2022-10-17T14:04:28;22.60;61.60
33863;DHT22;20158;51.436;-2.742;2022-10-17T14:06:54;22.60;61.60
33863;DHT22;20158;51.436;-2.742;2022-10-17T14:09:26;22.70;61.70
33863;DHT22;20158;51.436;-2.742;2022-10-17T14:12:02;22.70;61.50
33863;DHT22;20158;51.436;-2.742;2022-10-17T14:14:32;22.70;61.30
33863;DHT22;20158;51.436;-2.742;2022-10-17T14:16:59;22.70;61.30
33863;DHT22;20158;51.436;-2.742;2022-10-17T14:19:27;22.70;61.20
33863;DHT22;20158;51.436;-2.742;2022-10-17T14:22:13;22.60;61.00
33863;DHT22;20158;51.436;-2.742;2022-10-17T14:24:39;22.60;61.00
33863;DHT22;20158;51.436;-2.742;2022-10-17T14:29:57;22.40;60.40
33863;DHT22;20158;51.436;-2.742;2022-10-17T14:32:29;22.40;60.70
33863;DHT22;20158;51.436;-2.742;2022-10-17T14:34:59;22.30;60.60
33863;DHT22;20158;51.436;-2.742;2022-10-17T14:40:02;22.20;60.30
33863;DHT22;20158;51.436;-2.742;2022-10-17T14:42:29;22.10;60.10
33863;DHT22;20158;51.436;-2.742;2022-10-17T14:45:05;22.10;60.20
33863;DHT22;20158;51.436;-2.742;2022-10-17T14:47:32;22.10;60.10
33863;DHT22;20158;51.436;-2.742;2022-10-17T14:52:33;22.00;59.80
33863;DHT22;20158;51.436;-2.742;2022-10-17T14:55:16;21.90;59.70
33863;DHT22;20158;51.436;-2.742;2022-10-17T14:57:45;21.80;59.40
33863;DHT22;20158;51.436;-2.742;2022-10-17T15:00:15;21.80;59.70
33863;DHT22;20158;51.436;-2.742;2022-10-17T15:02:42;21.70;59.40
33863;DHT22;20158;51.436;-2.742;2022-10-17T15:05:09;21.60;59.40
33863;DHT22;20158;51.436;-2.742;2022-10-17T15:07:36;21.60;59.50
33863;DHT22;20158;51.436;-2.742;2022-10-17T15:10:02;21.50;59.40
33863;DHT22;20158;51.436;-2.742;2022-10-17T15:12:28;21.50;59.40
33863;DHT22;20158;51.436;-2.742;2022-10-17T15:14:55;21.50;59.60
33863;DHT22;20158;51.436;-2.742;2022-10-17T15:17:27;21.40;59.40
33863;DHT22;20158;51.436;-2.742;2022-10-17T15:19:54;21.40;59.40
33863;DHT22;20158;51.436;-2.742;2022-10-17T15:22:21;21.30;59.40
33863;DHT22;20158;51.436;-2.742;2022-10-17T15:24:48;21.40;59.80
33863;DHT22;20158;51.436;-2.742;2022-10-17T15:27:16;21.30;59.60
33863;DHT22;20158;51.436;-2.742;2022-10-17T15:29:43;21.40;59.80
33863;DHT22;20158;51.436;-2.742;2022-10-17T15:32:11;21.40;59.80
33863;DHT22;20158;51.436;-2.742;2022-10-17T15:34:37;21.40;59.80
33863;DHT22;20158;51.436;-2.742;2022-10-17T15:37:04;21.40;59.80
33863;DHT22;20158;51.436;-2.742;2022-10-17T15:39:31;21.40;59.90
33863;DHT22;20158;51.436;-2.742;2022-10-17T15:41:57;21.40;59.90
33863;DHT22;20158;51.436;-2.742;2022-10-17T15:44:24;21.30;59.80
33863;DHT22;20158;51.436;-2.742;2022-10-17T15:46:50;21.30;59.90
33863;DHT22;20158;51.436;-2.742;2022-10-17T15:49:17;21.30;60.00
33863;DHT22;20158;51.436;-2.742;2022-10-17T15:51:44;21.20;60.00
33863;DHT22;20158;51.436;-2.742;2022-10-17T15:54:10;21.10;59.90
33863;DHT22;20158;51.436;-2.742;2022-10-17T15:56:38;21.10;60.00
33863;DHT22;20158;51.436;-2.742;2022-10-17T15:59:10;21.00;60.00
33863;DHT22;20158;51.436;-2.742;2022-10-17T16:01:38;21.00;60.10
33863;DHT22;20158;51.436;-2.742;2022-10-17T16:04:05;20.90;60.00
33863;DHT22;20158;51.436;-2.742;2022-10-17T16:06:31;20.80;60.00
33863;DHT22;20158;51.436;-2.742;2022-10-17T16:08:57;20.80;60.10
33863;DHT22;20158;51.436;-2.742;2022-10-17T16:11:40;20.70;60.10
33863;DHT22;20158;51.436;-2.742;2022-10-17T16:14:10;20.70;60.20
33863;DHT22;20158;51.436;-2.742;2022-10-17T16:16:37;20.60;60.20
33863;DHT22;20158;51.436;-2.742;2022-10-17T16:19:03;20.50;60.20
33863;DHT22;20158;51.436;-2.742;2022-10-17T16:21:32;20.40;60.10
33863;DHT22;20158;51.436;-2.742;2022-10-17T16:23:58;20.40;60.20
33863;DHT22;20158;51.436;-2.742;2022-10-17T16:26:25;20.30;60.40
33863;DHT22;20158;51.436;-2.742;2022-10-17T16:28:51;20.30;60.80
33863;DHT22;20158;51.436;-2.742;2022-10-17T16:31:21;20.30;61.30
33863;DHT22;20158;51.436;-2.742;2022-10-17T16:33:50;20.20;61.50
33863;DHT22;20158;51.436;-2.742;2022-10-17T16:36:18;20.20;61.70
33863;DHT22;20158;51.436;-2.742;2022-10-17T16:38:45;20.20;61.90
33863;DHT22;20158;51.436;-2.742;2022-10-17T16:41:27;20.10;61.90
33863;DHT22;20158;51.436;-2.742;2022-10-17T16:43:56;20.10;62.10
33863;DHT22;20158;51.436;-2.742;2022-10-17T16:46:24;20.10;62.20
33863;DHT22;20158;51.436;-2.742;2022-10-17T16:48:51;20.00;62.20
33863;DHT22;20158;51.436;-2.742;2022-10-17T16:51:19;20.00;62.40
33863;DHT22;20158;51.436;-2.742;2022-10-17T16:53:46;19.90;62.80
33863;DHT22;20158;51.436;-2.742;2022-10-17T16:56:17;19.90;62.50
33863;DHT22;20158;51.436;-2.742;2022-10-17T16:58:44;19.80;62.60
33863;DHT22;20158;51.436;-2.742;2022-10-17T17:01:13;19.70;62.60
33863;DHT22;20158;51.436;-2.742;2022-10-17T17:03:42;19.60;62.60
33863;DHT22;20158;51.436;-2.742;2022-10-17T17:06:11;19.60;62.80
33863;DHT22;20158;51.436;-2.742;2022-10-17T17:08:37;19.40;63.20
33863;DHT22;20158;51.436;-2.742;2022-10-17T17:11:09;19.40;62.90
33863;DHT22;20158;51.436;-2.742;2022-10-17T17:13:35;19.30;63.00
33863;DHT22;20158;51.436;-2.742;2022-10-17T17:16:12;19.20;63.00
33863;DHT22;20158;51.436;-2.742;2022-10-17T17:18:41;19.10;63.10